Airfield :
LOGIN :

Register | Disclaimer

   EN    FR    IT 

 










Legend :    VFR   Marginal VFR   IFR   Intensive IFR   Very Intensive IFR
Visi :
Ceiling :
>= 8 km
>= 3000ft
5 to 8 km
1000 to 3000 ft
1500m to 5 km
500 to 1000 ft
800 to 1500m
200 to 500 ft
< 800m
< 200 ft
Symbols :   Thunderstorms  Fog  Heavy snow  Heavy precipitations  Wind > 20 kt
SIGMETs :     Misc.  Thunderstorms  Icing  Turbulence  Mountain Waves  Volcanic Ashes







- Airport Elevation : 102 ft
- IATA code : CNG
- Download approach charts


LFBG - Cognac

CURRENT METAR :
  • 170530Z AUTO VRB03KT CAVOK 15/14 Q1020 BECMG 0500 BCFG BKN012

EXPIRED METARs :
  • 170500Z AUTO 16002KT CAVOK 16/15 Q1020 BECMG 0500 BCFG BKN012
  • 170430Z AUTO 00000KT CAVOK 16/14 Q1020
  • 170400Z AUTO VRB03KT CAVOK 16/14 Q1020
  • 170330Z AUTO VRB01KT CAVOK 16/15 Q1020
  • 170300Z AUTO 00000KT CAVOK 16/15 Q1020

TAF AMD TAF LFBG
Valid from the 17 at 04:00 until the 18 at 03:00 UTC


170442Z 1704/1803 21005KT 0500 BCFG NSC
BECMG 1706/1707 BKN012
BECMG 1708/1710 25010KT BKN020
TEMPO 1714/1718 27015G25KT
No reported NOTAMs for that airfield.



MET'MAP, your aeronautical weather chart ! - Copyright ORBIFLY December 2007 - Disclaimer

ORBIFLY MET'MAP TEAM :

Programming & Development : Alexandra Zaïnal
Concept & Development : Baudouin d'Aumeries
Co-Development & Prog : Marc-Olivier Méhu
Technical & hardware support : Manuel Goepfert

Contact : metmap@orbifly.com




SOURCES & CREDITS :

   NOAA